Kuku — DB7417 — position and weather

sailwx.info

Track history (hours):
 
Tides and Currents Weather Stations Pressure Air Temp Water Temp Dewpoint Dewpoint Depression Visibility Wind Speed Wind Dir Waves Ship Positions

Kuku

Last reported at 2017-Oct-26 16:18 UTC. Time now 2017-Nov-20 00:26 UTC.
Position N 36°56' W 007°55'.
Warning: this ship's position is 24 days out of date.

Length 10 m.

Type: Sailing vessel. MMSI: 211582060.

Date/timePositionNaut miles runAvg speedWind from/ knotsBaromVisibWave heightAir tempDewpointWater temp
2017-Oct-26 16:18N 36°56' W 007°55'2 5.1
2017-Oct-26 15:49N 36°55' W 007°57'2 4.5
2017-Oct-26 15:27N 36°54' W 007°59'2 5.2
2017-Oct-26 15:00N 36°56' W 007°60'1 2.6
2017-Oct-26 14:29N 36°57' W 008°01'2 4.0
2017-Oct-26 13:58N 36°55' W 008°03'2 4.0
2017-Oct-26 13:30N 36°54' W 008°05'3 5.4
2017-Oct-26 12:58N 36°57' W 008°06'2 4.9
2017-Oct-26 12:29N 36°59' W 008°07'3 5.4
2017-Oct-26 12:00N 37°02' W 008°07'  
2017-Oct-22 19:44N 37°05' W 008°07'0 0.0
2017-Oct-22 19:20N 37°05' W 008°07'0 0.0
2017-Oct-22 18:53N 37°05' W 008°07'0 0.0
2017-Oct-22 18:29N 37°05' W 008°07'  
Track history (hours):
 
Tides and Currents Weather Stations Pressure Air Temp Water Temp Dewpoint Dewpoint Depression Visibility Wind Speed Wind Dir Waves Ship Positions

Kuku

Last reported at 2017-Oct-26 16:18 UTC. Time now 2017-Nov-20 00:26 UTC.
Position N 36°56' W 007°55'.
Warning: this ship's position is 24 days out of date.

Length 10 m.

Type: Sailing vessel. MMSI: 211582060.

Date/timePositionNaut miles runAvg speedWind from/ knotsBaromVisibWave heightAir tempDewpointWater temp
2017-Oct-26 16:18N 36°56' W 007°55'2 5.1
2017-Oct-26 15:49N 36°55' W 007°57'2 4.5
2017-Oct-26 15:27N 36°54' W 007°59'2 5.2
2017-Oct-26 15:00N 36°56' W 007°60'1 2.6
2017-Oct-26 14:29N 36°57' W 008°01'2 4.0
2017-Oct-26 13:58N 36°55' W 008°03'2 4.0
2017-Oct-26 13:30N 36°54' W 008°05'3 5.4
2017-Oct-26 12:58N 36°57' W 008°06'2 4.9
2017-Oct-26 12:29N 36°59' W 008°07'3 5.4
2017-Oct-26 12:00N 37°02' W 008°07'  
2017-Oct-22 19:44N 37°05' W 008°07'0 0.0
2017-Oct-22 19:20N 37°05' W 008°07'0 0.0
2017-Oct-22 18:53N 37°05' W 008°07'0 0.0
2017-Oct-22 18:29N 37°05' W 008°07'  

Dump ship's entire track history